sensor_id;sensor_type;location;lat;lon;timestamp;temperature;humidity
18191;DHT22;47004;51.366;12.348;2023-01-13T00:00:38;10.50;99.90
18191;DHT22;47004;51.366;12.348;2023-01-13T00:02:40;10.50;99.90
18191;DHT22;47004;51.366;12.348;2023-01-13T00:04:42;10.40;99.90
18191;DHT22;47004;51.366;12.348;2023-01-13T00:06:44;10.50;99.90
18191;DHT22;47004;51.366;12.348;2023-01-13T00:08:47;10.40;99.90
18191;DHT22;47004;51.366;12.348;2023-01-13T00:10:49;10.40;99.90
18191;DHT22;47004;51.366;12.348;2023-01-13T00:12:53;10.40;99.90
18191;DHT22;47004;51.366;12.348;2023-01-13T00:14:55;10.30;99.90
18191;DHT22;47004;51.366;12.348;2023-01-13T00:16:57;10.40;99.90
18191;DHT22;47004;51.366;12.348;2023-01-13T00:18:59;10.30;99.90
18191;DHT22;47004;51.366;12.348;2023-01-13T00:21:03;10.30;99.90
18191;DHT22;47004;51.366;12.348;2023-01-13T00:23:05;10.30;99.90
18191;DHT22;47004;51.366;12.348;2023-01-13T00:25:08;10.30;99.90
18191;DHT22;47004;51.366;12.348;2023-01-13T00:27:10;10.30;99.90
18191;DHT22;47004;51.366;12.348;2023-01-13T00:29:13;10.30;99.90
18191;DHT22;47004;51.366;12.348;2023-01-13T00:31:17;10.30;99.90
18191;DHT22;47004;51.366;12.348;2023-01-13T00:33:19;10.30;99.90
18191;DHT22;47004;51.366;12.348;2023-01-13T00:35:21;10.30;99.90
18191;DHT22;47004;51.366;12.348;2023-01-13T00:37:24;10.30;99.90
18191;DHT22;47004;51.366;12.348;2023-01-13T00:39:26;10.30;99.90
18191;DHT22;47004;51.366;12.348;2023-01-13T00:41:28;10.30;99.90
18191;DHT22;47004;51.366;12.348;2023-01-13T00:43:50;10.30;99.90
18191;DHT22;47004;51.366;12.348;2023-01-13T00:45:52;10.20;99.90
18191;DHT22;47004;51.366;12.348;2023-01-13T00:47:55;10.20;99.90
18191;DHT22;47004;51.366;12.348;2023-01-13T00:49:57;10.20;99.90
18191;DHT22;47004;51.366;12.348;2023-01-13T00:51:59;10.20;99.90
18191;DHT22;47004;51.366;12.348;2023-01-13T00:54:01;10.20;99.90
18191;DHT22;47004;51.366;12.348;2023-01-13T00:56:04;10.20;99.90
18191;DHT22;47004;51.366;12.348;2023-01-13T00:58:07;10.20;99.90
18191;DHT22;47004;51.366;12.348;2023-01-13T01:00:10;10.20;99.90
18191;DHT22;47004;51.366;12.348;2023-01-13T01:02:13;10.20;99.90
18191;DHT22;47004;51.366;12.348;2023-01-13T01:04:15;10.10;99.90
18191;DHT22;47004;51.366;12.348;2023-01-13T01:06:19;10.20;99.90
18191;DHT22;47004;51.366;12.348;2023-01-13T01:08:22;10.10;99.90
18191;DHT22;47004;51.366;12.348;2023-01-13T01:10:24;10.10;99.90
18191;DHT22;47004;51.366;12.348;2023-01-13T01:12:26;10.20;99.90
18191;DHT22;47004;51.366;12.348;2023-01-13T01:14:28;10.20;99.90
18191;DHT22;47004;51.366;12.348;2023-01-13T01:16:32;10.20;99.90
18191;DHT22;47004;51.366;12.348;2023-01-13T01:18:38;10.20;99.90
18191;DHT22;47004;51.366;12.348;2023-01-13T01:20:40;10.20;99.90
18191;DHT22;47004;51.366;12.348;2023-01-13T01:22:42;10.20;99.90
18191;DHT22;47004;51.366;12.348;2023-01-13T01:24:46;10.20;99.90
18191;DHT22;47004;51.366;12.348;2023-01-13T01:26:48;10.20;99.90
18191;DHT22;47004;51.366;12.348;2023-01-13T01:28:50;10.30;99.90
18191;DHT22;47004;51.366;12.348;2023-01-13T01:30:53;10.30;99.90
18191;DHT22;47004;51.366;12.348;2023-01-13T01:32:55;10.20;99.90
18191;DHT22;47004;51.366;12.348;2023-01-13T01:34:58;10.20;99.90
18191;DHT22;47004;51.366;12.348;2023-01-13T01:37:00;10.20;99.90
18191;DHT22;47004;51.366;12.348;2023-01-13T01:39:03;10.30;99.90
18191;DHT22;47004;51.366;12.348;2023-01-13T01:41:06;10.30;99.90
18191;DHT22;47004;51.366;12.348;2023-01-13T01:43:13;10.30;99.90
18191;DHT22;47004;51.366;12.348;2023-01-13T01:45:32;10.30;99.90
18191;DHT22;47004;51.366;12.348;2023-01-13T01:47:34;10.20;99.90
18191;DHT22;47004;51.366;12.348;2023-01-13T01:49:37;10.30;99.90
18191;DHT22;47004;51.366;12.348;2023-01-13T01:51:44;10.30;99.90
18191;DHT22;47004;51.366;12.348;2023-01-13T01:53:47;10.30;99.90
18191;DHT22;47004;51.366;12.348;2023-01-13T01:55:50;10.30;99.90
18191;DHT22;47004;51.366;12.348;2023-01-13T01:57:54;10.30;99.90
18191;DHT22;47004;51.366;12.348;2023-01-13T01:59:59;10.30;99.90
18191;DHT22;47004;51.366;12.348;2023-01-13T02:02:02;10.30;99.90
18191;DHT22;47004;51.366;12.348;2023-01-13T02:04:10;10.30;99.90
18191;DHT22;47004;51.366;12.348;2023-01-13T02:06:14;10.30;99.90
18191;DHT22;47004;51.366;12.348;2023-01-13T02:08:18;10.30;99.90
18191;DHT22;47004;51.366;12.348;2023-01-13T02:10:23;10.40;99.90
18191;DHT22;47004;51.366;12.348;2023-01-13T02:12:27;10.30;99.90
18191;DHT22;47004;51.366;12.348;2023-01-13T02:14:33;10.30;99.90
18191;DHT22;47004;51.366;12.348;2023-01-13T02:16:39;10.30;99.90
18191;DHT22;47004;51.366;12.348;2023-01-13T02:18:54;10.30;99.90
18191;DHT22;47004;51.366;12.348;2023-01-13T02:24:04;10.30;99.90
18191;DHT22;47004;51.366;12.348;2023-01-13T02:29:11;10.30;99.90
18191;DHT22;47004;51.366;12.348;2023-01-13T02:31:38;10.40;99.90
18191;DHT22;47004;51.366;12.348;2023-01-13T02:33:52;10.40;99.90
18191;DHT22;47004;51.366;12.348;2023-01-13T02:36:01;10.40;99.90
18191;DHT22;47004;51.366;12.348;2023-01-13T02:38:06;10.40;99.90
18191;DHT22;47004;51.366;12.348;2023-01-13T02:40:14;10.40;99.90
18191;DHT22;47004;51.366;12.348;2023-01-13T02:42:23;10.50;99.90
18191;DHT22;47004;51.366;12.348;2023-01-13T02:44:47;10.50;99.90
18191;DHT22;47004;51.366;12.348;2023-01-13T02:46:56;10.50;99.90
18191;DHT22;47004;51.366;12.348;2023-01-13T02:49:03;10.40;99.90
18191;DHT22;47004;51.366;12.348;2023-01-13T02:51:10;10.40;99.90
18191;DHT22;47004;51.366;12.348;2023-01-13T02:53:17;10.40;99.90
18191;DHT22;47004;51.366;12.348;2023-01-13T02:55:27;10.40;99.90
18191;DHT22;47004;51.366;12.348;2023-01-13T02:57:31;10.40;99.90
18191;DHT22;47004;51.366;12.348;2023-01-13T02:59:35;10.40;99.90
18191;DHT22;47004;51.366;12.348;2023-01-13T03:01:37;10.40;99.90
18191;DHT22;47004;51.366;12.348;2023-01-13T03:03:41;10.50;99.90
18191;DHT22;47004;51.366;12.348;2023-01-13T03:05:45;10.50;99.90
18191;DHT22;47004;51.366;12.348;2023-01-13T03:08:03;10.50;99.90
18191;DHT22;47004;51.366;12.348;2023-01-13T03:10:14;10.50;99.90
18191;DHT22;47004;51.366;12.348;2023-01-13T03:12:27;10.50;99.90
18191;DHT22;47004;51.366;12.348;2023-01-13T03:14:38;10.50;99.90
18191;DHT22;47004;51.366;12.348;2023-01-13T03:16:57;10.50;99.90
18191;DHT22;47004;51.366;12.348;2023-01-13T03:19:19;10.50;99.90
18191;DHT22;47004;51.366;12.348;2023-01-13T03:21:29;10.50;99.90
18191;DHT22;47004;51.366;12.348;2023-01-13T03:23:39;10.60;99.90
18191;DHT22;47004;51.366;12.348;2023-01-13T03:25:49;10.60;99.90
18191;DHT22;47004;51.366;12.348;2023-01-13T03:27:57;10.60;99.90
18191;DHT22;47004;51.366;12.348;2023-01-13T03:30:05;10.60;99.90
18191;DHT22;47004;51.366;12.348;2023-01-13T03:32:11;10.60;99.90
18191;DHT22;47004;51.366;12.348;2023-01-13T03:34:19;10.60;99.90
18191;DHT22;47004;51.366;12.348;2023-01-13T03:36:23;10.60;99.90
18191;DHT22;47004;51.366;12.348;2023-01-13T03:38:29;10.50;99.90
18191;DHT22;47004;51.366;12.348;2023-01-13T03:40:35;10.60;99.90
18191;DHT22;47004;51.366;12.348;2023-01-13T03:42:41;10.60;99.90
18191;DHT22;47004;51.366;12.348;2023-01-13T03:45:08;10.50;99.90
18191;DHT22;47004;51.366;12.348;2023-01-13T03:47:15;10.50;99.90
18191;DHT22;47004;51.366;12.348;2023-01-13T03:49:26;10.50;99.90
18191;DHT22;47004;51.366;12.348;2023-01-13T03:51:31;10.50;99.90
18191;DHT22;47004;51.366;12.348;2023-01-13T03:53:37;10.50;99.90
18191;DHT22;47004;51.366;12.348;2023-01-13T03:55:42;10.60;99.90
18191;DHT22;47004;51.366;12.348;2023-01-13T03:57:49;10.60;99.90
18191;DHT22;47004;51.366;12.348;2023-01-13T03:59:59;10.60;99.90
18191;DHT22;47004;51.366;12.348;2023-01-13T04:02:06;10.60;99.90
18191;DHT22;47004;51.366;12.348;2023-01-13T04:04:12;10.50;99.90
18191;DHT22;47004;51.366;12.348;2023-01-13T04:06:22;10.50;99.90
18191;DHT22;47004;51.366;12.348;2023-01-13T04:08:27;10.60;99.90
18191;DHT22;47004;51.366;12.348;2023-01-13T04:10:34;10.60;99.90
18191;DHT22;47004;51.366;12.348;2023-01-13T04:12:43;10.60;99.90
18191;DHT22;47004;51.366;12.348;2023-01-13T04:15:01;10.50;99.90
18191;DHT22;47004;51.366;12.348;2023-01-13T04:17:04;10.60;99.90
18191;DHT22;47004;51.366;12.348;2023-01-13T04:19:05;10.50;99.90
18191;DHT22;47004;51.366;12.348;2023-01-13T04:21:07;10.50;99.90
18191;DHT22;47004;51.366;12.348;2023-01-13T04:23:11;10.50;99.90
18191;DHT22;47004;51.366;12.348;2023-01-13T04:25:13;10.50;99.90
18191;DHT22;47004;51.366;12.348;2023-01-13T04:27:15;10.50;99.90
18191;DHT22;47004;51.366;12.348;2023-01-13T04:29:20;10.40;99.90
18191;DHT22;47004;51.366;12.348;2023-01-13T04:31:22;10.40;99.90
18191;DHT22;47004;51.366;12.348;2023-01-13T04:33:24;10.40;99.90
18191;DHT22;47004;51.366;12.348;2023-01-13T04:35:26;10.40;99.90
18191;DHT22;47004;51.366;12.348;2023-01-13T04:37:28;10.40;99.90
18191;DHT22;47004;51.366;12.348;2023-01-13T04:39:31;10.40;99.90
18191;DHT22;47004;51.366;12.348;2023-01-13T04:41:33;10.30;99.90
18191;DHT22;47004;51.366;12.348;2023-01-13T04:43:49;10.30;99.90
18191;DHT22;47004;51.366;12.348;2023-01-13T04:45:51;10.30;99.90
18191;DHT22;47004;51.366;12.348;2023-01-13T04:47:53;10.30;99.90
18191;DHT22;47004;51.366;12.348;2023-01-13T04:49:55;10.30;99.90
18191;DHT22;47004;51.366;12.348;2023-01-13T04:51:57;10.30;99.90
18191;DHT22;47004;51.366;12.348;2023-01-13T04:53:59;10.30;99.90
18191;DHT22;47004;51.366;12.348;2023-01-13T04:56:02;10.30;99.90
18191;DHT22;47004;51.366;12.348;2023-01-13T04:58:06;10.30;99.90
18191;DHT22;47004;51.366;12.348;2023-01-13T05:00:10;10.30;99.90
18191;DHT22;47004;51.366;12.348;2023-01-13T05:02:13;10.30;99.90
18191;DHT22;47004;51.366;12.348;2023-01-13T05:04:19;10.30;99.90
18191;DHT22;47004;51.366;12.348;2023-01-13T05:06:21;10.30;99.90
18191;DHT22;47004;51.366;12.348;2023-01-13T05:08:23;10.30;99.90
18191;DHT22;47004;51.366;12.348;2023-01-13T05:10:25;10.30;99.90
18191;DHT22;47004;51.366;12.348;2023-01-13T05:12:29;10.30;99.90
18191;DHT22;47004;51.366;12.348;2023-01-13T05:14:48;10.30;99.90
18191;DHT22;47004;51.366;12.348;2023-01-13T05:17:18;10.20;99.90
18191;DHT22;47004;51.366;12.348;2023-01-13T05:19:20;10.30;99.90
18191;DHT22;47004;51.366;12.348;2023-01-13T05:21:22;10.20;99.90
18191;DHT22;47004;51.366;12.348;2023-01-13T05:23:41;10.20;99.90
18191;DHT22;47004;51.366;12.348;2023-01-13T05:26:00;10.20;99.90
18191;DHT22;47004;51.366;12.348;2023-01-13T05:28:05;10.30;99.90
18191;DHT22;47004;51.366;12.348;2023-01-13T05:30:08;10.20;99.90
18191;DHT22;47004;51.366;12.348;2023-01-13T05:32:10;10.20;99.90
18191;DHT22;47004;51.366;12.348;2023-01-13T05:34:12;10.20;99.90
18191;DHT22;47004;51.366;12.348;2023-01-13T05:36:14;10.20;99.90
18191;DHT22;47004;51.366;12.348;2023-01-13T05:38:19;10.20;99.90
18191;DHT22;47004;51.366;12.348;2023-01-13T05:40:21;10.20;99.90
18191;DHT22;47004;51.366;12.348;2023-01-13T05:42:41;10.20;99.90
18191;DHT22;47004;51.366;12.348;2023-01-13T05:45:01;10.20;99.90
18191;DHT22;47004;51.366;12.348;2023-01-13T05:47:03;10.20;99.90
18191;DHT22;47004;51.366;12.348;2023-01-13T05:49:05;10.20;99.90
18191;DHT22;47004;51.366;12.348;2023-01-13T05:51:09;10.20;99.90
18191;DHT22;47004;51.366;12.348;2023-01-13T05:53:12;10.20;99.90
18191;DHT22;47004;51.366;12.348;2023-01-13T05:55:17;10.20;99.90
18191;DHT22;47004;51.366;12.348;2023-01-13T05:57:19;10.30;99.90
18191;DHT22;47004;51.366;12.348;2023-01-13T05:59:20;10.20;99.90
18191;DHT22;47004;51.366;12.348;2023-01-13T06:01:24;10.20;99.90
18191;DHT22;47004;51.366;12.348;2023-01-13T06:03:26;10.20;99.90
18191;DHT22;47004;51.366;12.348;2023-01-13T06:05:28;10.20;99.90
18191;DHT22;47004;51.366;12.348;2023-01-13T06:07:30;10.20;99.90
18191;DHT22;47004;51.366;12.348;2023-01-13T06:09:34;10.20;99.90
18191;DHT22;47004;51.366;12.348;2023-01-13T06:11:36;10.20;99.90
18191;DHT22;47004;51.366;12.348;2023-01-13T06:13:38;10.20;99.90
18191;DHT22;47004;51.366;12.348;2023-01-13T06:15:40;10.20;99.90
18191;DHT22;47004;51.366;12.348;2023-01-13T06:17:44;10.20;99.90
18191;DHT22;47004;51.366;12.348;2023-01-13T06:19:45;10.20;99.90
18191;DHT22;47004;51.366;12.348;2023-01-13T06:21:47;10.20;99.90
18191;DHT22;47004;51.366;12.348;2023-01-13T06:23:52;10.20;99.90
18191;DHT22;47004;51.366;12.348;2023-01-13T06:26:01;10.10;99.90
18191;DHT22;47004;51.366;12.348;2023-01-13T06:28:05;10.10;99.90
18191;DHT22;47004;51.366;12.348;2023-01-13T06:30:08;10.00;99.90
18191;DHT22;47004;51.366;12.348;2023-01-13T06:32:14;9.90;99.90
18191;DHT22;47004;51.366;12.348;2023-01-13T06:34:19;9.80;99.90
18191;DHT22;47004;51.366;12.348;2023-01-13T06:36:25;9.70;99.90
18191;DHT22;47004;51.366;12.348;2023-01-13T06:38:30;9.60;99.90
18191;DHT22;47004;51.366;12.348;2023-01-13T06:40:34;9.60;99.90
18191;DHT22;47004;51.366;12.348;2023-01-13T06:42:36;9.50;99.90
18191;DHT22;47004;51.366;12.348;2023-01-13T06:44:55;9.50;99.90
18191;DHT22;47004;51.366;12.348;2023-01-13T06:46:58;9.50;99.90
18191;DHT22;47004;51.366;12.348;2023-01-13T06:48:59;9.40;99.90
18191;DHT22;47004;51.366;12.348;2023-01-13T06:51:04;9.30;99.90
18191;DHT22;47004;51.366;12.348;2023-01-13T06:53:06;9.10;99.90
18191;DHT22;47004;51.366;12.348;2023-01-13T06:55:08;8.80;99.90
18191;DHT22;47004;51.366;12.348;2023-01-13T06:57:10;8.60;99.90
18191;DHT22;47004;51.366;12.348;2023-01-13T06:59:12;8.40;99.90
18191;DHT22;47004;51.366;12.348;2023-01-13T07:01:14;8.30;99.90
18191;DHT22;47004;51.366;12.348;2023-01-13T07:03:17;8.20;99.90
18191;DHT22;47004;51.366;12.348;2023-01-13T07:05:19;8.10;99.90
18191;DHT22;47004;51.366;12.348;2023-01-13T07:07:23;8.00;99.90
18191;DHT22;47004;51.366;12.348;2023-01-13T07:09:25;8.00;99.90
18191;DHT22;47004;51.366;12.348;2023-01-13T07:11:27;7.90;99.90
18191;DHT22;47004;51.366;12.348;2023-01-13T07:13:29;7.80;99.90
18191;DHT22;47004;51.366;12.348;2023-01-13T07:16:00;7.80;99.90
18191;DHT22;47004;51.366;12.348;2023-01-13T07:18:02;7.80;99.90
18191;DHT22;47004;51.366;12.348;2023-01-13T07:20:05;7.70;99.90
18191;DHT22;47004;51.366;12.348;2023-01-13T07:22:07;7.70;99.90
18191;DHT22;47004;51.366;12.348;2023-01-13T07:24:11;7.70;99.90
18191;DHT22;47004;51.366;12.348;2023-01-13T07:26:14;7.60;99.90
18191;DHT22;47004;51.366;12.348;2023-01-13T07:28:16;7.70;99.90
18191;DHT22;47004;51.366;12.348;2023-01-13T07:30:18;7.60;99.90
18191;DHT22;47004;51.366;12.348;2023-01-13T07:32:20;7.60;99.90
18191;DHT22;47004;51.366;12.348;2023-01-13T07:34:22;7.60;99.90
18191;DHT22;47004;51.366;12.348;2023-01-13T07:36:24;7.60;99.90
18191;DHT22;47004;51.366;12.348;2023-01-13T07:38:26;7.60;99.90
18191;DHT22;47004;51.366;12.348;2023-01-13T07:40:30;7.60;99.90
18191;DHT22;47004;51.366;12.348;2023-01-13T07:42:32;7.60;99.90
18191;DHT22;47004;51.366;12.348;2023-01-13T07:44:51;7.50;99.90
18191;DHT22;47004;51.366;12.348;2023-01-13T07:46:56;7.60;99.90
18191;DHT22;47004;51.366;12.348;2023-01-13T07:49:08;7.60;99.90
18191;DHT22;47004;51.366;12.348;2023-01-13T07:51:11;7.60;99.90
18191;DHT22;47004;51.366;12.348;2023-01-13T07:53:13;7.60;99.90
18191;DHT22;47004;51.366;12.348;2023-01-13T07:55:18;7.50;99.90
18191;DHT22;47004;51.366;12.348;2023-01-13T07:57:22;7.60;99.90
18191;DHT22;47004;51.366;12.348;2023-01-13T07:59:24;7.50;99.90
18191;DHT22;47004;51.366;12.348;2023-01-13T08:01:26;7.50;99.90
18191;DHT22;47004;51.366;12.348;2023-01-13T08:03:28;7.50;99.90
18191;DHT22;47004;51.366;12.348;2023-01-13T08:05:31;7.50;99.90
18191;DHT22;47004;51.366;12.348;2023-01-13T08:07:33;7.40;99.90
18191;DHT22;47004;51.366;12.348;2023-01-13T08:09:35;7.40;99.90
18191;DHT22;47004;51.366;12.348;2023-01-13T08:11:37;7.30;99.90
18191;DHT22;47004;51.366;12.348;2023-01-13T08:13:40;7.20;99.90
18191;DHT22;47004;51.366;12.348;2023-01-13T08:15:41;7.20;99.90
18191;DHT22;47004;51.366;12.348;2023-01-13T08:17:43;7.20;99.90
18191;DHT22;47004;51.366;12.348;2023-01-13T08:19:45;7.10;99.90
18191;DHT22;47004;51.366;12.348;2023-01-13T08:21:47;7.10;99.90
18191;DHT22;47004;51.366;12.348;2023-01-13T08:23:49;7.10;99.90
18191;DHT22;47004;51.366;12.348;2023-01-13T08:25:51;7.50;99.90
18191;DHT22;47004;51.366;12.348;2023-01-13T08:27:53;7.10;99.90
18191;DHT22;47004;51.366;12.348;2023-01-13T08:29:57;7.10;99.90
18191;DHT22;47004;51.366;12.348;2023-01-13T08:31:59;7.10;99.90
18191;DHT22;47004;51.366;12.348;2023-01-13T08:34:01;7.10;99.90
18191;DHT22;47004;51.366;12.348;2023-01-13T08:36:04;7.00;99.90
18191;DHT22;47004;51.366;12.348;2023-01-13T08:38:10;7.00;99.90
18191;DHT22;47004;51.366;12.348;2023-01-13T08:40:13;7.00;99.90
18191;DHT22;47004;51.366;12.348;2023-01-13T08:42:15;7.00;99.90
18191;DHT22;47004;51.366;12.348;2023-01-13T08:44:17;7.00;99.90
18191;DHT22;47004;51.366;12.348;2023-01-13T08:46:20;7.00;99.90
18191;DHT22;47004;51.366;12.348;2023-01-13T08:48:22;7.00;99.90
18191;DHT22;47004;51.366;12.348;2023-01-13T08:50:24;6.60;99.90
18191;DHT22;47004;51.366;12.348;2023-01-13T08:52:28;6.90;99.90
18191;DHT22;47004;51.366;12.348;2023-01-13T08:54:30;6.90;99.90
18191;DHT22;47004;51.366;12.348;2023-01-13T08:56:32;6.90;99.90
18191;DHT22;47004;51.366;12.348;2023-01-13T08:58:34;6.90;99.90
18191;DHT22;47004;51.366;12.348;2023-01-13T09:00:36;6.90;99.90
18191;DHT22;47004;51.366;12.348;2023-01-13T09:02:39;6.90;99.90
18191;DHT22;47004;51.366;12.348;2023-01-13T09:04:42;6.80;99.90
18191;DHT22;47004;51.366;12.348;2023-01-13T09:06:44;6.80;99.90
18191;DHT22;47004;51.366;12.348;2023-01-13T09:08:46;6.90;99.90
18191;DHT22;47004;51.366;12.348;2023-01-13T09:10:49;6.80;99.90
18191;DHT22;47004;51.366;12.348;2023-01-13T09:12:51;6.90;99.90
18191;DHT22;47004;51.366;12.348;2023-01-13T09:15:10;6.80;99.90
18191;DHT22;47004;51.366;12.348;2023-01-13T09:17:13;6.80;99.90
18191;DHT22;47004;51.366;12.348;2023-01-13T09:19:16;6.90;99.90
18191;DHT22;47004;51.366;12.348;2023-01-13T09:21:18;6.80;99.90
18191;DHT22;47004;51.366;12.348;2023-01-13T09:23:20;6.90;99.90
18191;DHT22;47004;51.366;12.348;2023-01-13T09:25:22;6.90;99.90
18191;DHT22;47004;51.366;12.348;2023-01-13T09:27:24;6.90;99.90
18191;DHT22;47004;51.366;12.348;2023-01-13T09:29:26;6.90;99.90
18191;DHT22;47004;51.366;12.348;2023-01-13T09:31:28;6.80;99.90
18191;DHT22;47004;51.366;12.348;2023-01-13T09:33:33;6.90;99.90
18191;DHT22;47004;51.366;12.348;2023-01-13T09:35:58;6.90;99.90
18191;DHT22;47004;51.366;12.348;2023-01-13T09:38:00;6.80;99.90
18191;DHT22;47004;51.366;12.348;2023-01-13T09:40:04;6.90;99.90
18191;DHT22;47004;51.366;12.348;2023-01-13T09:42:17;6.80;99.90
18191;DHT22;47004;51.366;12.348;2023-01-13T09:44:45;6.80;99.90
18191;DHT22;47004;51.366;12.348;2023-01-13T09:46:51;6.90;99.90
18191;DHT22;47004;51.366;12.348;2023-01-13T09:48:55;6.80;99.90
18191;DHT22;47004;51.366;12.348;2023-01-13T09:51:07;6.90;99.90
18191;DHT22;47004;51.366;12.348;2023-01-13T09:53:18;6.90;99.90
18191;DHT22;47004;51.366;12.348;2023-01-13T09:55:24;6.90;99.90
18191;DHT22;47004;51.366;12.348;2023-01-13T09:57:31;6.90;99.90
18191;DHT22;47004;51.366;12.348;2023-01-13T09:59:34;6.90;99.90
18191;DHT22;47004;51.366;12.348;2023-01-13T10:01:43;6.90;99.90
18191;DHT22;47004;51.366;12.348;2023-01-13T10:03:47;6.90;99.90
18191;DHT22;47004;51.366;12.348;2023-01-13T10:06:03;6.90;99.90
18191;DHT22;47004;51.366;12.348;2023-01-13T10:08:11;6.90;99.90
18191;DHT22;47004;51.366;12.348;2023-01-13T10:10:17;6.90;99.90
18191;DHT22;47004;51.366;12.348;2023-01-13T10:12:24;7.00;99.90
18191;DHT22;47004;51.366;12.348;2023-01-13T10:14:51;7.00;99.90
18191;DHT22;47004;51.366;12.348;2023-01-13T10:17:05;7.00;99.90
18191;DHT22;47004;51.366;12.348;2023-01-13T10:19:15;7.00;99.90
18191;DHT22;47004;51.366;12.348;2023-01-13T10:21:37;6.90;99.90
18191;DHT22;47004;51.366;12.348;2023-01-13T10:23:52;6.90;99.90
18191;DHT22;47004;51.366;12.348;2023-01-13T10:26:00;6.90;99.90
18191;DHT22;47004;51.366;12.348;2023-01-13T10:28:09;6.90;99.90
18191;DHT22;47004;51.366;12.348;2023-01-13T10:30:18;6.90;99.90
18191;DHT22;47004;51.366;12.348;2023-01-13T10:32:20;7.00;99.90
18191;DHT22;47004;51.366;12.348;2023-01-13T10:34:23;7.00;99.90
18191;DHT22;47004;51.366;12.348;2023-01-13T10:36:27;7.00;99.90
18191;DHT22;47004;51.366;12.348;2023-01-13T10:38:35;7.00;99.90
18191;DHT22;47004;51.366;12.348;2023-01-13T10:40:46;7.00;99.90
18191;DHT22;47004;51.366;12.348;2023-01-13T10:43:03;7.10;99.90
18191;DHT22;47004;51.366;12.348;2023-01-13T10:45:18;7.10;99.90
18191;DHT22;47004;51.366;12.348;2023-01-13T10:47:26;7.10;99.90
18191;DHT22;47004;51.366;12.348;2023-01-13T10:49:31;7.10;99.90
18191;DHT22;47004;51.366;12.348;2023-01-13T10:51:43;7.20;99.90
18191;DHT22;47004;51.366;12.348;2023-01-13T10:53:50;7.20;99.90
18191;DHT22;47004;51.366;12.348;2023-01-13T10:56:02;7.20;99.90
18191;DHT22;47004;51.366;12.348;2023-01-13T10:58:11;7.20;99.90
18191;DHT22;47004;51.366;12.348;2023-01-13T11:00:25;7.20;99.90
18191;DHT22;47004;51.366;12.348;2023-01-13T11:02:30;7.30;99.90
18191;DHT22;47004;51.366;12.348;2023-01-13T11:04:34;7.30;99.90
18191;DHT22;47004;51.366;12.348;2023-01-13T11:06:46;7.40;99.90
18191;DHT22;47004;51.366;12.348;2023-01-13T11:08:49;7.40;99.90
18191;DHT22;47004;51.366;12.348;2023-01-13T11:10:55;7.40;99.90
18191;DHT22;47004;51.366;12.348;2023-01-13T11:13:01;7.40;99.90
18191;DHT22;47004;51.366;12.348;2023-01-13T11:15:10;7.50;99.90
18191;DHT22;47004;51.366;12.348;2023-01-13T11:17:41;7.50;99.90
18191;DHT22;47004;51.366;12.348;2023-01-13T11:19:52;7.60;99.90
18191;DHT22;47004;51.366;12.348;2023-01-13T11:22:01;7.50;99.90
18191;DHT22;47004;51.366;12.348;2023-01-13T11:24:11;7.50;99.90
18191;DHT22;47004;51.366;12.348;2023-01-13T11:26:20;7.50;99.90
18191;DHT22;47004;51.366;12.348;2023-01-13T11:28:43;7.60;99.90
18191;DHT22;47004;51.366;12.348;2023-01-13T11:30:51;7.60;99.90
18191;DHT22;47004;51.366;12.348;2023-01-13T11:33:16;7.70;99.90
18191;DHT22;47004;51.366;12.348;2023-01-13T11:35:22;7.80;99.90
18191;DHT22;47004;51.366;12.348;2023-01-13T11:37:28;7.80;99.90
18191;DHT22;47004;51.366;12.348;2023-01-13T11:39:41;7.90;99.90
18191;DHT22;47004;51.366;12.348;2023-01-13T11:41:49;8.00;99.90
18191;DHT22;47004;51.366;12.348;2023-01-13T11:44:17;8.10;99.90
18191;DHT22;47004;51.366;12.348;2023-01-13T11:46:23;8.20;99.90
18191;DHT22;47004;51.366;12.348;2023-01-13T11:48:27;8.30;99.90
18191;DHT22;47004;51.366;12.348;2023-01-13T11:50:34;8.40;99.90
18191;DHT22;47004;51.366;12.348;2023-01-13T11:55:26;8.70;99.90
18191;DHT22;47004;51.366;12.348;2023-01-13T11:58:00;8.80;99.90
18191;DHT22;47004;51.366;12.348;2023-01-13T12:00:23;8.80;99.90
18191;DHT22;47004;51.366;12.348;2023-01-13T12:02:42;9.00;99.90
18191;DHT22;47004;51.366;12.348;2023-01-13T12:04:54;9.10;99.90
18191;DHT22;47004;51.366;12.348;2023-01-13T12:07:07;9.40;99.90
18191;DHT22;47004;51.366;12.348;2023-01-13T12:09:37;9.50;99.90
18191;DHT22;47004;51.366;12.348;2023-01-13T12:11:53;9.60;99.90
18191;DHT22;47004;51.366;12.348;2023-01-13T12:14:20;9.70;99.90
18191;DHT22;47004;51.366;12.348;2023-01-13T12:16:25;9.80;99.90
18191;DHT22;47004;51.366;12.348;2023-01-13T12:18:42;9.80;99.90
18191;DHT22;47004;51.366;12.348;2023-01-13T12:20:59;9.70;99.90
18191;DHT22;47004;51.366;12.348;2023-01-13T12:23:09;9.60;99.90
18191;DHT22;47004;51.366;12.348;2023-01-13T12:25:20;9.60;99.90
18191;DHT22;47004;51.366;12.348;2023-01-13T12:27:33;9.40;99.90
18191;DHT22;47004;51.366;12.348;2023-01-13T12:29:39;9.30;99.90
18191;DHT22;47004;51.366;12.348;2023-01-13T12:31:42;9.20;99.90
18191;DHT22;47004;51.366;12.348;2023-01-13T12:36:19;9.10;99.90
18191;DHT22;47004;51.366;12.348;2023-01-13T12:38:33;9.10;99.90
18191;DHT22;47004;51.366;12.348;2023-01-13T12:40:45;9.10;99.90
18191;DHT22;47004;51.366;12.348;2023-01-13T12:42:54;9.10;99.90
18191;DHT22;47004;51.366;12.348;2023-01-13T12:45:25;9.00;99.90
18191;DHT22;47004;51.366;12.348;2023-01-13T12:47:35;8.90;99.90
18191;DHT22;47004;51.366;12.348;2023-01-13T12:49:37;8.90;99.90
18191;DHT22;47004;51.366;12.348;2023-01-13T12:52:03;8.90;99.90
18191;DHT22;47004;51.366;12.348;2023-01-13T12:54:30;8.90;99.90
18191;DHT22;47004;51.366;12.348;2023-01-13T12:56:42;8.90;99.90
18191;DHT22;47004;51.366;12.348;2023-01-13T12:58:44;8.80;99.90
18191;DHT22;47004;51.366;12.348;2023-01-13T13:00:58;8.80;99.90
18191;DHT22;47004;51.366;12.348;2023-01-13T13:03:28;8.70;99.90
18191;DHT22;47004;51.366;12.348;2023-01-13T13:05:45;8.80;99.90
18191;DHT22;47004;51.366;12.348;2023-01-13T13:07:51;8.90;99.90
18191;DHT22;47004;51.366;12.348;2023-01-13T13:09:57;9.10;99.90
18191;DHT22;47004;51.366;12.348;2023-01-13T13:12:31;9.30;99.90
18191;DHT22;47004;51.366;12.348;2023-01-13T13:14:59;9.50;99.90
18191;DHT22;47004;51.366;12.348;2023-01-13T13:17:04;9.70;99.90
18191;DHT22;47004;51.366;12.348;2023-01-13T13:19:42;9.90;99.90
18191;DHT22;47004;51.366;12.348;2023-01-13T13:22:14;9.90;99.90
18191;DHT22;47004;51.366;12.348;2023-01-13T13:24:18;10.10;99.90
18191;DHT22;47004;51.366;12.348;2023-01-13T13:26:26;10.10;99.90